sensor_id;sensor_type;location;lat;lon;timestamp;P1;durP1;ratioP1;P2;durP2;ratioP2
2650;SDS011;1335;48.180;16.342;2023-11-19T00:01:09;8.48;;;6.20;;
2650;SDS011;1335;48.180;16.342;2023-11-19T00:03:36;7.53;;;5.77;;
2650;SDS011;1335;48.180;16.342;2023-11-19T00:06:04;8.85;;;6.65;;
2650;SDS011;1335;48.180;16.342;2023-11-19T00:08:31;7.03;;;6.03;;
2650;SDS011;1335;48.180;16.342;2023-11-19T00:10:58;8.23;;;5.63;;
2650;SDS011;1335;48.180;16.342;2023-11-19T00:13:27;7.72;;;5.70;;
2650;SDS011;1335;48.180;16.342;2023-11-19T00:15:55;8.25;;;5.45;;
2650;SDS011;1335;48.180;16.342;2023-11-19T00:18:22;9.93;;;6.45;;
2650;SDS011;1335;48.180;16.342;2023-11-19T00:20:50;7.73;;;6.50;;
2650;SDS011;1335;48.180;16.342;2023-11-19T00:23:17;11.30;;;6.20;;
2650;SDS011;1335;48.180;16.342;2023-11-19T00:25:44;5.87;;;5.27;;
2650;SDS011;1335;48.180;16.342;2023-11-19T00:28:13;7.90;;;6.23;;
2650;SDS011;1335;48.180;16.342;2023-11-19T00:30:41;9.80;;;6.37;;
2650;SDS011;1335;48.180;16.342;2023-11-19T00:33:08;6.63;;;5.90;;
2650;SDS011;1335;48.180;16.342;2023-11-19T00:35:36;7.22;;;6.13;;
2650;SDS011;1335;48.180;16.342;2023-11-19T00:38:03;11.38;;;5.75;;
2650;SDS011;1335;48.180;16.342;2023-11-19T00:40:30;8.05;;;6.10;;
2650;SDS011;1335;48.180;16.342;2023-11-19T00:42:57;7.93;;;6.32;;
2650;SDS011;1335;48.180;16.342;2023-11-19T00:45:25;7.22;;;6.47;;
2650;SDS011;1335;48.180;16.342;2023-11-19T00:47:53;10.00;;;7.05;;
2650;SDS011;1335;48.180;16.342;2023-11-19T00:50:21;7.55;;;6.35;;
2650;SDS011;1335;48.180;16.342;2023-11-19T00:52:48;8.55;;;6.40;;
2650;SDS011;1335;48.180;16.342;2023-11-19T00:55:16;8.27;;;6.20;;
2650;SDS011;1335;48.180;16.342;2023-11-19T00:57:43;7.20;;;6.20;;
2650;SDS011;1335;48.180;16.342;2023-11-19T01:00:12;8.60;;;5.97;;
2650;SDS011;1335;48.180;16.342;2023-11-19T01:02:43;9.80;;;6.03;;
2650;SDS011;1335;48.180;16.342;2023-11-19T01:05:12;6.87;;;5.63;;
2650;SDS011;1335;48.180;16.342;2023-11-19T01:07:40;8.02;;;5.75;;
2650;SDS011;1335;48.180;16.342;2023-11-19T01:10:08;6.25;;;5.65;;
2650;SDS011;1335;48.180;16.342;2023-11-19T01:12:36;7.23;;;5.80;;
2650;SDS011;1335;48.180;16.342;2023-11-19T01:15:04;7.18;;;5.70;;
2650;SDS011;1335;48.180;16.342;2023-11-19T01:17:31;7.82;;;7.03;;
2650;SDS011;1335;48.180;16.342;2023-11-19T01:19:58;8.87;;;6.73;;
2650;SDS011;1335;48.180;16.342;2023-11-19T01:22:27;7.03;;;6.18;;
2650;SDS011;1335;48.180;16.342;2023-11-19T01:24:54;8.48;;;5.82;;
2650;SDS011;1335;48.180;16.342;2023-11-19T01:27:23;7.57;;;6.07;;
2650;SDS011;1335;48.180;16.342;2023-11-19T01:29:50;8.00;;;6.18;;
2650;SDS011;1335;48.180;16.342;2023-11-19T01:32:17;9.57;;;7.40;;
2650;SDS011;1335;48.180;16.342;2023-11-19T01:34:45;8.40;;;6.25;;
2650;SDS011;1335;48.180;16.342;2023-11-19T01:37:12;9.75;;;7.75;;
2650;SDS011;1335;48.180;16.342;2023-11-19T01:39:41;8.85;;;7.00;;
2650;SDS011;1335;48.180;16.342;2023-11-19T01:42:10;8.32;;;7.10;;
2650;SDS011;1335;48.180;16.342;2023-11-19T01:44:38;8.18;;;6.90;;
2650;SDS011;1335;48.180;16.342;2023-11-19T01:47:05;8.53;;;7.17;;
2650;SDS011;1335;48.180;16.342;2023-11-19T01:49:33;9.13;;;6.93;;
2650;SDS011;1335;48.180;16.342;2023-11-19T01:52:00;9.40;;;6.85;;
2650;SDS011;1335;48.180;16.342;2023-11-19T01:54:28;9.05;;;6.55;;
2650;SDS011;1335;48.180;16.342;2023-11-19T01:56:57;12.65;;;8.05;;
2650;SDS011;1335;48.180;16.342;2023-11-19T01:59:26;8.55;;;6.93;;
2650;SDS011;1335;48.180;16.342;2023-11-19T02:01:53;7.53;;;6.22;;
2650;SDS011;1335;48.180;16.342;2023-11-19T02:04:22;8.17;;;6.43;;
2650;SDS011;1335;48.180;16.342;2023-11-19T02:06:50;12.10;;;7.40;;
2650;SDS011;1335;48.180;16.342;2023-11-19T02:09:18;8.75;;;6.93;;
2650;SDS011;1335;48.180;16.342;2023-11-19T02:11:46;7.72;;;6.55;;
2650;SDS011;1335;48.180;16.342;2023-11-19T02:14:17;8.73;;;6.43;;
2650;SDS011;1335;48.180;16.342;2023-11-19T02:16:45;7.37;;;6.53;;
2650;SDS011;1335;48.180;16.342;2023-11-19T02:19:12;8.73;;;6.80;;
2650;SDS011;1335;48.180;16.342;2023-11-19T02:21:39;7.30;;;6.23;;
2650;SDS011;1335;48.180;16.342;2023-11-19T02:24:08;7.63;;;6.60;;
2650;SDS011;1335;48.180;16.342;2023-11-19T02:26:38;7.60;;;6.33;;
2650;SDS011;1335;48.180;16.342;2023-11-19T02:29:07;7.20;;;6.13;;
2650;SDS011;1335;48.180;16.342;2023-11-19T02:31:34;8.97;;;7.03;;
2650;SDS011;1335;48.180;16.342;2023-11-19T02:34:02;6.67;;;5.97;;
2650;SDS011;1335;48.180;16.342;2023-11-19T02:36:30;6.83;;;5.90;;
2650;SDS011;1335;48.180;16.342;2023-11-19T02:38:58;8.40;;;6.13;;
2650;SDS011;1335;48.180;16.342;2023-11-19T02:41:25;9.43;;;5.03;;
2650;SDS011;1335;48.180;16.342;2023-11-19T02:43:52;5.63;;;5.10;;
2650;SDS011;1335;48.180;16.342;2023-11-19T02:46:21;6.30;;;5.17;;
2650;SDS011;1335;48.180;16.342;2023-11-19T02:48:48;4.90;;;4.47;;
2650;SDS011;1335;48.180;16.342;2023-11-19T02:51:15;4.10;;;3.80;;
2650;SDS011;1335;48.180;16.342;2023-11-19T02:53:43;5.70;;;5.20;;
2650;SDS011;1335;48.180;16.342;2023-11-19T02:56:13;4.67;;;4.27;;
2650;SDS011;1335;48.180;16.342;2023-11-19T02:58:45;4.70;;;4.30;;
2650;SDS011;1335;48.180;16.342;2023-11-19T03:01:14;4.80;;;4.40;;
2650;SDS011;1335;48.180;16.342;2023-11-19T03:03:56;5.03;;;4.63;;
2650;SDS011;1335;48.180;16.342;2023-11-19T03:06:23;5.53;;;4.10;;
2650;SDS011;1335;48.180;16.342;2023-11-19T03:08:51;5.10;;;4.40;;
2650;SDS011;1335;48.180;16.342;2023-11-19T03:11:18;6.25;;;5.30;;
2650;SDS011;1335;48.180;16.342;2023-11-19T03:13:45;5.15;;;4.47;;
2650;SDS011;1335;48.180;16.342;2023-11-19T03:16:13;5.88;;;5.35;;
2650;SDS011;1335;48.180;16.342;2023-11-19T03:18:40;5.40;;;4.90;;
2650;SDS011;1335;48.180;16.342;2023-11-19T03:21:08;4.70;;;4.18;;
2650;SDS011;1335;48.180;16.342;2023-11-19T03:23:36;6.38;;;5.10;;
2650;SDS011;1335;48.180;16.342;2023-11-19T03:26:05;5.50;;;4.93;;
2650;SDS011;1335;48.180;16.342;2023-11-19T03:28:33;6.37;;;4.70;;
2650;SDS011;1335;48.180;16.342;2023-11-19T03:31:00;5.30;;;4.00;;
2650;SDS011;1335;48.180;16.342;2023-11-19T03:33:27;7.65;;;5.38;;
2650;SDS011;1335;48.180;16.342;2023-11-19T03:35:56;6.50;;;5.35;;
2650;SDS011;1335;48.180;16.342;2023-11-19T03:38:25;5.32;;;4.82;;
2650;SDS011;1335;48.180;16.342;2023-11-19T03:40:52;5.80;;;5.30;;
2650;SDS011;1335;48.180;16.342;2023-11-19T03:43:19;5.43;;;4.90;;
2650;SDS011;1335;48.180;16.342;2023-11-19T03:45:46;6.32;;;4.95;;
2650;SDS011;1335;48.180;16.342;2023-11-19T03:48:14;12.00;;;5.60;;
2650;SDS011;1335;48.180;16.342;2023-11-19T03:50:42;6.80;;;5.20;;
2650;SDS011;1335;48.180;16.342;2023-11-19T03:53:09;6.07;;;5.57;;
2650;SDS011;1335;48.180;16.342;2023-11-19T03:55:38;6.57;;;5.27;;
2650;SDS011;1335;48.180;16.342;2023-11-19T03:58:05;6.30;;;5.23;;
2650;SDS011;1335;48.180;16.342;2023-11-19T04:00:32;6.38;;;5.03;;
2650;SDS011;1335;48.180;16.342;2023-11-19T04:02:59;5.87;;;5.27;;
2650;SDS011;1335;48.180;16.342;2023-11-19T04:05:27;5.77;;;4.93;;
2650;SDS011;1335;48.180;16.342;2023-11-19T04:07:54;6.07;;;5.03;;
2650;SDS011;1335;48.180;16.342;2023-11-19T04:10:22;7.03;;;5.07;;
2650;SDS011;1335;48.180;16.342;2023-11-19T04:12:50;5.77;;;4.90;;
2650;SDS011;1335;48.180;16.342;2023-11-19T04:15:17;5.57;;;5.03;;
2650;SDS011;1335;48.180;16.342;2023-11-19T04:17:45;6.23;;;5.47;;
2650;SDS011;1335;48.180;16.342;2023-11-19T04:20:12;7.85;;;6.47;;
2650;SDS011;1335;48.180;16.342;2023-11-19T04:22:39;6.22;;;5.63;;
2650;SDS011;1335;48.180;16.342;2023-11-19T04:25:07;7.03;;;6.33;;
2650;SDS011;1335;48.180;16.342;2023-11-19T04:27:34;5.95;;;5.35;;
2650;SDS011;1335;48.180;16.342;2023-11-19T04:30:03;6.90;;;5.93;;
2650;SDS011;1335;48.180;16.342;2023-11-19T04:32:35;6.75;;;5.93;;
2650;SDS011;1335;48.180;16.342;2023-11-19T04:35:02;7.45;;;5.93;;
2650;SDS011;1335;48.180;16.342;2023-11-19T04:37:29;6.80;;;5.93;;
2650;SDS011;1335;48.180;16.342;2023-11-19T04:39:57;8.20;;;7.40;;
2650;SDS011;1335;48.180;16.342;2023-11-19T04:42:25;7.60;;;6.90;;
2650;SDS011;1335;48.180;16.342;2023-11-19T04:44:52;7.50;;;6.30;;
2650;SDS011;1335;48.180;16.342;2023-11-19T04:47:21;7.32;;;6.05;;
2650;SDS011;1335;48.180;16.342;2023-11-19T04:49:48;6.35;;;5.60;;
2650;SDS011;1335;48.180;16.342;2023-11-19T04:52:15;7.50;;;6.70;;
2650;SDS011;1335;48.180;16.342;2023-11-19T04:54:43;7.20;;;6.37;;
2650;SDS011;1335;48.180;16.342;2023-11-19T04:57:10;8.25;;;5.70;;
2650;SDS011;1335;48.180;16.342;2023-11-19T04:59:37;7.95;;;7.03;;
2650;SDS011;1335;48.180;16.342;2023-11-19T05:02:05;6.57;;;5.90;;
2650;SDS011;1335;48.180;16.342;2023-11-19T05:04:33;7.60;;;6.30;;
2650;SDS011;1335;48.180;16.342;2023-11-19T05:07:01;6.72;;;5.78;;
2650;SDS011;1335;48.180;16.342;2023-11-19T05:09:29;7.45;;;6.75;;
2650;SDS011;1335;48.180;16.342;2023-11-19T05:11:57;8.88;;;6.90;;
2650;SDS011;1335;48.180;16.342;2023-11-19T05:14:24;7.03;;;6.33;;
2650;SDS011;1335;48.180;16.342;2023-11-19T05:16:51;7.00;;;6.30;;
2650;SDS011;1335;48.180;16.342;2023-11-19T05:19:18;6.65;;;5.95;;
2650;SDS011;1335;48.180;16.342;2023-11-19T05:21:47;7.40;;;6.00;;
2650;SDS011;1335;48.180;16.342;2023-11-19T05:24:17;8.57;;;6.50;;
2650;SDS011;1335;48.180;16.342;2023-11-19T05:26:44;8.00;;;6.75;;
2650;SDS011;1335;48.180;16.342;2023-11-19T05:29:12;8.52;;;6.60;;
2650;SDS011;1335;48.180;16.342;2023-11-19T05:31:39;7.05;;;6.20;;
2650;SDS011;1335;48.180;16.342;2023-11-19T05:34:06;9.68;;;6.70;;
2650;SDS011;1335;48.180;16.342;2023-11-19T05:36:33;7.50;;;6.33;;
2650;SDS011;1335;48.180;16.342;2023-11-19T05:39:02;7.95;;;6.97;;
2650;SDS011;1335;48.180;16.342;2023-11-19T05:41:30;7.88;;;6.50;;
2650;SDS011;1335;48.180;16.342;2023-11-19T05:43:57;7.20;;;6.43;;
2650;SDS011;1335;48.180;16.342;2023-11-19T05:46:24;6.80;;;5.90;;
2650;SDS011;1335;48.180;16.342;2023-11-19T05:48:52;8.13;;;6.60;;
2650;SDS011;1335;48.180;16.342;2023-11-19T05:51:19;8.13;;;6.25;;
2650;SDS011;1335;48.180;16.342;2023-11-19T05:53:49;7.40;;;6.40;;
2650;SDS011;1335;48.180;16.342;2023-11-19T05:56:17;7.70;;;6.13;;
2650;SDS011;1335;48.180;16.342;2023-11-19T05:58:46;7.00;;;6.30;;
2650;SDS011;1335;48.180;16.342;2023-11-19T06:01:14;9.32;;;7.30;;
2650;SDS011;1335;48.180;16.342;2023-11-19T06:03:41;8.15;;;7.35;;
2650;SDS011;1335;48.180;16.342;2023-11-19T06:06:12;8.73;;;7.82;;
2650;SDS011;1335;48.180;16.342;2023-11-19T06:08:39;10.97;;;8.50;;
2650;SDS011;1335;48.180;16.342;2023-11-19T06:11:07;10.32;;;8.38;;
2650;SDS011;1335;48.180;16.342;2023-11-19T06:13:39;8.52;;;7.63;;
2650;SDS011;1335;48.180;16.342;2023-11-19T06:16:08;9.83;;;8.63;;
2650;SDS011;1335;48.180;16.342;2023-11-19T06:18:36;10.20;;;8.97;;
2650;SDS011;1335;48.180;16.342;2023-11-19T06:21:03;11.60;;;8.63;;
2650;SDS011;1335;48.180;16.342;2023-11-19T06:23:30;9.63;;;8.60;;
2650;SDS011;1335;48.180;16.342;2023-11-19T06:25:57;13.18;;;9.30;;
2650;SDS011;1335;48.180;16.342;2023-11-19T06:28:25;12.50;;;10.47;;
2650;SDS011;1335;48.180;16.342;2023-11-19T06:30:54;9.90;;;8.90;;
2650;SDS011;1335;48.180;16.342;2023-11-19T06:33:22;11.55;;;8.90;;
2650;SDS011;1335;48.180;16.342;2023-11-19T06:35:49;9.00;;;8.10;;
2650;SDS011;1335;48.180;16.342;2023-11-19T06:38:17;10.93;;;9.82;;
2650;SDS011;1335;48.180;16.342;2023-11-19T06:40:44;10.88;;;9.40;;
2650;SDS011;1335;48.180;16.342;2023-11-19T06:43:11;10.77;;;9.20;;
2650;SDS011;1335;48.180;16.342;2023-11-19T06:45:39;11.53;;;8.23;;
2650;SDS011;1335;48.180;16.342;2023-11-19T06:48:07;11.83;;;9.43;;
2650;SDS011;1335;48.180;16.342;2023-11-19T06:50:35;10.30;;;8.63;;
2650;SDS011;1335;48.180;16.342;2023-11-19T06:53:02;9.70;;;8.60;;
2650;SDS011;1335;48.180;16.342;2023-11-19T06:55:31;10.57;;;8.77;;
2650;SDS011;1335;48.180;16.342;2023-11-19T06:57:59;11.07;;;9.33;;
2650;SDS011;1335;48.180;16.342;2023-11-19T07:00:28;11.40;;;9.40;;
2650;SDS011;1335;48.180;16.342;2023-11-19T07:02:57;12.18;;;9.50;;
2650;SDS011;1335;48.180;16.342;2023-11-19T07:05:26;11.87;;;8.53;;
2650;SDS011;1335;48.180;16.342;2023-11-19T07:07:53;15.10;;;9.90;;
2650;SDS011;1335;48.180;16.342;2023-11-19T07:10:20;10.93;;;9.40;;
2650;SDS011;1335;48.180;16.342;2023-11-19T07:12:48;12.95;;;9.52;;
2650;SDS011;1335;48.180;16.342;2023-11-19T07:15:16;9.40;;;8.03;;
2650;SDS011;1335;48.180;16.342;2023-11-19T07:17:44;10.00;;;8.97;;
2650;SDS011;1335;48.180;16.342;2023-11-19T07:20:11;10.50;;;8.60;;
2650;SDS011;1335;48.180;16.342;2023-11-19T07:22:43;9.23;;;8.33;;
2650;SDS011;1335;48.180;16.342;2023-11-19T07:25:12;10.30;;;8.47;;
2650;SDS011;1335;48.180;16.342;2023-11-19T07:27:39;9.80;;;8.20;;
2650;SDS011;1335;48.180;16.342;2023-11-19T07:30:08;9.57;;;8.67;;
2650;SDS011;1335;48.180;16.342;2023-11-19T07:32:35;11.13;;;9.90;;
2650;SDS011;1335;48.180;16.342;2023-11-19T07:35:04;9.70;;;8.73;;
2650;SDS011;1335;48.180;16.342;2023-11-19T07:37:32;9.33;;;8.40;;
2650;SDS011;1335;48.180;16.342;2023-11-19T07:40:01;9.57;;;8.57;;
2650;SDS011;1335;48.180;16.342;2023-11-19T07:42:29;8.23;;;7.43;;
2650;SDS011;1335;48.180;16.342;2023-11-19T07:44:56;9.52;;;8.50;;
2650;SDS011;1335;48.180;16.342;2023-11-19T07:47:23;9.75;;;7.90;;
2650;SDS011;1335;48.180;16.342;2023-11-19T07:49:50;12.23;;;10.10;;
2650;SDS011;1335;48.180;16.342;2023-11-19T07:52:18;9.50;;;8.52;;
2650;SDS011;1335;48.180;16.342;2023-11-19T07:54:45;11.23;;;9.30;;
2650;SDS011;1335;48.180;16.342;2023-11-19T07:57:14;10.68;;;8.25;;
2650;SDS011;1335;48.180;16.342;2023-11-19T07:59:41;11.37;;;9.53;;
2650;SDS011;1335;48.180;16.342;2023-11-19T08:02:08;10.67;;;8.83;;
2650;SDS011;1335;48.180;16.342;2023-11-19T08:04:35;10.60;;;8.60;;
2650;SDS011;1335;48.180;16.342;2023-11-19T08:07:05;9.40;;;8.40;;
2650;SDS011;1335;48.180;16.342;2023-11-19T08:09:32;11.13;;;9.45;;
2650;SDS011;1335;48.180;16.342;2023-11-19T08:11:59;9.83;;;7.80;;
2650;SDS011;1335;48.180;16.342;2023-11-19T08:14:28;10.43;;;8.68;;
2650;SDS011;1335;48.180;16.342;2023-11-19T08:16:55;9.33;;;8.37;;
2650;SDS011;1335;48.180;16.342;2023-11-19T08:19:22;9.03;;;8.03;;
2650;SDS011;1335;48.180;16.342;2023-11-19T08:21:49;10.83;;;8.57;;
2650;SDS011;1335;48.180;16.342;2023-11-19T08:24:17;11.90;;;8.97;;
2650;SDS011;1335;48.180;16.342;2023-11-19T08:26:44;10.33;;;8.50;;
2650;SDS011;1335;48.180;16.342;2023-11-19T08:29:11;11.10;;;8.90;;
2650;SDS011;1335;48.180;16.342;2023-11-19T08:31:40;10.30;;;9.17;;
2650;SDS011;1335;48.180;16.342;2023-11-19T08:34:07;9.27;;;8.33;;
2650;SDS011;1335;48.180;16.342;2023-11-19T08:36:34;10.50;;;7.30;;
2650;SDS011;1335;48.180;16.342;2023-11-19T08:39:02;9.20;;;7.63;;
2650;SDS011;1335;48.180;16.342;2023-11-19T08:41:30;11.03;;;7.67;;
2650;SDS011;1335;48.180;16.342;2023-11-19T08:43:57;9.07;;;7.90;;
2650;SDS011;1335;48.180;16.342;2023-11-19T08:46:24;8.27;;;7.47;;
2650;SDS011;1335;48.180;16.342;2023-11-19T08:48:53;8.20;;;7.23;;
2650;SDS011;1335;48.180;16.342;2023-11-19T08:51:22;8.00;;;6.97;;
2650;SDS011;1335;48.180;16.342;2023-11-19T08:53:50;9.50;;;8.50;;
2650;SDS011;1335;48.180;16.342;2023-11-19T08:56:17;8.97;;;7.90;;
2650;SDS011;1335;48.180;16.342;2023-11-19T08:58:45;8.77;;;7.93;;
2650;SDS011;1335;48.180;16.342;2023-11-19T09:01:12;8.13;;;7.43;;
2650;SDS011;1335;48.180;16.342;2023-11-19T09:03:39;10.13;;;7.93;;
2650;SDS011;1335;48.180;16.342;2023-11-19T09:06:08;9.77;;;7.67;;
2650;SDS011;1335;48.180;16.342;2023-11-19T09:08:35;8.23;;;7.23;;
2650;SDS011;1335;48.180;16.342;2023-11-19T09:11:06;8.17;;;7.37;;
2650;SDS011;1335;48.180;16.342;2023-11-19T09:13:34;11.10;;;9.47;;
2650;SDS011;1335;48.180;16.342;2023-11-19T09:16:01;9.97;;;9.07;;
2650;SDS011;1335;48.180;16.342;2023-11-19T09:18:28;12.70;;;11.20;;
2650;SDS011;1335;48.180;16.342;2023-11-19T09:20:57;9.70;;;8.80;;
2650;SDS011;1335;48.180;16.342;2023-11-19T09:23:26;8.63;;;7.73;;
2650;SDS011;1335;48.180;16.342;2023-11-19T09:25:54;8.90;;;7.20;;
2650;SDS011;1335;48.180;16.342;2023-11-19T09:28:21;7.90;;;7.10;;
2650;SDS011;1335;48.180;16.342;2023-11-19T09:30:48;9.53;;;8.60;;
2650;SDS011;1335;48.180;16.342;2023-11-19T09:33:16;10.60;;;9.47;;
2650;SDS011;1335;48.180;16.342;2023-11-19T09:35:43;9.40;;;8.50;;
2650;SDS011;1335;48.180;16.342;2023-11-19T09:38:10;8.93;;;7.97;;
2650;SDS011;1335;48.180;16.342;2023-11-19T09:40:39;8.10;;;7.30;;
2650;SDS011;1335;48.180;16.342;2023-11-19T09:43:07;8.27;;;7.33;;
2650;SDS011;1335;48.180;16.342;2023-11-19T09:45:45;8.70;;;7.90;;
2650;SDS011;1335;48.180;16.342;2023-11-19T09:48:15;8.20;;;7.37;;
2650;SDS011;1335;48.180;16.342;2023-11-19T09:50:44;8.27;;;7.40;;
2650;SDS011;1335;48.180;16.342;2023-11-19T09:53:11;8.17;;;7.47;;
2650;SDS011;1335;48.180;16.342;2023-11-19T09:55:40;7.90;;;7.10;;
2650;SDS011;1335;48.180;16.342;2023-11-19T09:58:07;8.00;;;7.30;;
2650;SDS011;1335;48.180;16.342;2023-11-19T10:00:35;6.90;;;6.30;;
2650;SDS011;1335;48.180;16.342;2023-11-19T10:03:02;6.93;;;6.23;;
2650;SDS011;1335;48.180;16.342;2023-11-19T10:05:30;7.27;;;6.60;;
2650;SDS011;1335;48.180;16.342;2023-11-19T10:07:57;7.77;;;6.93;;
2650;SDS011;1335;48.180;16.342;2023-11-19T10:10:25;7.60;;;6.90;;
2650;SDS011;1335;48.180;16.342;2023-11-19T10:12:53;7.13;;;6.43;;
2650;SDS011;1335;48.180;16.342;2023-11-19T10:15:22;7.80;;;7.10;;
2650;SDS011;1335;48.180;16.342;2023-11-19T10:17:49;8.13;;;6.47;;
2650;SDS011;1335;48.180;16.342;2023-11-19T10:20:16;7.60;;;6.90;;
2650;SDS011;1335;48.180;16.342;2023-11-19T10:22:43;6.27;;;5.73;;
2650;SDS011;1335;48.180;16.342;2023-11-19T10:25:21;6.10;;;5.60;;
2650;SDS011;1335;48.180;16.342;2023-11-19T10:27:48;6.00;;;5.57;;
2650;SDS011;1335;48.180;16.342;2023-11-19T10:30:18;5.50;;;5.10;;
2650;SDS011;1335;48.180;16.342;2023-11-19T10:32:54;10.03;;;9.13;;
2650;SDS011;1335;48.180;16.342;2023-11-19T10:35:29;7.23;;;6.60;;
2650;SDS011;1335;48.180;16.342;2023-11-19T10:37:58;6.40;;;5.87;;
2650;SDS011;1335;48.180;16.342;2023-11-19T10:40:33;7.50;;;6.80;;
2650;SDS011;1335;48.180;16.342;2023-11-19T10:43:04;7.87;;;7.17;;
2650;SDS011;1335;48.180;16.342;2023-11-19T10:45:34;11.07;;;9.40;;
2650;SDS011;1335;48.180;16.342;2023-11-19T10:48:01;7.60;;;6.80;;
2650;SDS011;1335;48.180;16.342;2023-11-19T10:50:31;6.37;;;5.60;;
2650;SDS011;1335;48.180;16.342;2023-11-19T10:52:58;6.77;;;6.17;;
2650;SDS011;1335;48.180;16.342;2023-11-19T10:55:27;7.43;;;5.73;;
2650;SDS011;1335;48.180;16.342;2023-11-19T10:57:58;6.70;;;6.10;;
2650;SDS011;1335;48.180;16.342;2023-11-19T11:00:25;7.37;;;6.67;;
2650;SDS011;1335;48.180;16.342;2023-11-19T11:02:55;6.80;;;6.20;;
2650;SDS011;1335;48.180;16.342;2023-11-19T11:05:23;6.00;;;5.43;;
2650;SDS011;1335;48.180;16.342;2023-11-19T11:07:52;7.03;;;5.57;;
2650;SDS011;1335;48.180;16.342;2023-11-19T11:10:23;8.50;;;7.60;;
2650;SDS011;1335;48.180;16.342;2023-11-19T11:12:52;7.30;;;6.47;;
2650;SDS011;1335;48.180;16.342;2023-11-19T11:15:24;6.03;;;5.43;;
2650;SDS011;1335;48.180;16.342;2023-11-19T11:17:56;7.23;;;6.40;;
2650;SDS011;1335;48.180;16.342;2023-11-19T11:20:25;7.20;;;6.50;;
2650;SDS011;1335;48.180;16.342;2023-11-19T11:22:55;6.73;;;6.13;;
2650;SDS011;1335;48.180;16.342;2023-11-19T11:25:30;6.60;;;6.00;;
2650;SDS011;1335;48.180;16.342;2023-11-19T11:28:09;6.30;;;5.60;;
2650;SDS011;1335;48.180;16.342;2023-11-19T11:30:40;6.40;;;5.70;;
2650;SDS011;1335;48.180;16.342;2023-11-19T11:33:18;7.20;;;6.60;;
2650;SDS011;1335;48.180;16.342;2023-11-19T11:35:49;7.07;;;6.37;;
2650;SDS011;1335;48.180;16.342;2023-11-19T11:38:21;7.63;;;7.03;;
2650;SDS011;1335;48.180;16.342;2023-11-19T11:43:43;7.40;;;6.70;;
2650;SDS011;1335;48.180;16.342;2023-11-19T11:48:54;7.80;;;7.00;;
2650;SDS011;1335;48.180;16.342;2023-11-19T11:51:28;7.10;;;6.40;;
2650;SDS011;1335;48.180;16.342;2023-11-19T11:54:25;6.73;;;5.90;;
2650;SDS011;1335;48.180;16.342;2023-11-19T11:57:00;7.10;;;6.30;;
2650;SDS011;1335;48.180;16.342;2023-11-19T11:59:31;7.70;;;7.00;;
2650;SDS011;1335;48.180;16.342;2023-11-19T12:01:58;8.17;;;7.37;;
2650;SDS011;1335;48.180;16.342;2023-11-19T12:04:27;8.13;;;7.33;;
2650;SDS011;1335;48.180;16.342;2023-11-19T12:07:04;7.83;;;7.03;;
2650;SDS011;1335;48.180;16.342;2023-11-19T12:09:31;10.00;;;7.60;;
2650;SDS011;1335;48.180;16.342;2023-11-19T12:12:07;7.40;;;6.63;;
2650;SDS011;1335;48.180;16.342;2023-11-19T12:20:07;8.83;;;6.60;;
2650;SDS011;1335;48.180;16.342;2023-11-19T12:22:36;7.83;;;6.13;;
2650;SDS011;1335;48.180;16.342;2023-11-19T12:25:04;8.10;;;7.07;;
2650;SDS011;1335;48.180;16.342;2023-11-19T12:27:32;6.90;;;6.30;;
2650;SDS011;1335;48.180;16.342;2023-11-19T12:30:00;8.00;;;7.20;;
2650;SDS011;1335;48.180;16.342;2023-11-19T12:32:36;6.93;;;6.33;;
2650;SDS011;1335;48.180;16.342;2023-11-19T12:35:04;9.03;;;6.80;;
2650;SDS011;1335;48.180;16.342;2023-11-19T12:37:33;8.50;;;6.90;;
2650;SDS011;1335;48.180;16.342;2023-11-19T12:40:00;6.80;;;6.20;;
2650;SDS011;1335;48.180;16.342;2023-11-19T12:42:36;7.10;;;6.03;;
2650;SDS011;1335;48.180;16.342;2023-11-19T12:45:04;7.57;;;6.73;;
2650;SDS011;1335;48.180;16.342;2023-11-19T12:47:31;8.97;;;6.60;;
2650;SDS011;1335;48.180;16.342;2023-11-19T12:49:58;7.73;;;7.03;;
2650;SDS011;1335;48.180;16.342;2023-11-19T12:52:26;7.53;;;6.80;;
2650;SDS011;1335;48.180;16.342;2023-11-19T12:54:54;7.83;;;7.13;;
2650;SDS011;1335;48.180;16.342;2023-11-19T12:57:35;8.33;;;6.80;;
2650;SDS011;1335;48.180;16.342;2023-11-19T13:00:02;9.63;;;7.30;;
2650;SDS011;1335;48.180;16.342;2023-11-19T13:02:44;8.27;;;7.23;;
2650;SDS011;1335;48.180;16.342;2023-11-19T13:05:23;8.20;;;7.40;;
2650;SDS011;1335;48.180;16.342;2023-11-19T13:07:51;8.53;;;7.03;;
2650;SDS011;1335;48.180;16.342;2023-11-19T13:10:20;10.47;;;7.40;;
2650;SDS011;1335;48.180;16.342;2023-11-19T13:12:59;9.20;;;7.90;;
2650;SDS011;1335;48.180;16.342;2023-11-19T13:15:26;7.73;;;7.00;;
2650;SDS011;1335;48.180;16.342;2023-11-19T13:17:53;7.80;;;7.00;;
2650;SDS011;1335;48.180;16.342;2023-11-19T13:20:21;9.00;;;8.10;;
2650;SDS011;1335;48.180;16.342;2023-11-19T13:22:55;9.00;;;8.07;;
2650;SDS011;1335;48.180;16.342;2023-11-19T13:25:24;9.13;;;8.33;;
2650;SDS011;1335;48.180;16.342;2023-11-19T13:27:51;9.17;;;8.07;;
2650;SDS011;1335;48.180;16.342;2023-11-19T13:30:18;9.07;;;8.10;;
2650;SDS011;1335;48.180;16.342;2023-11-19T13:32:47;7.60;;;6.90;;
2650;SDS011;1335;48.180;16.342;2023-11-19T13:35:14;9.67;;;8.67;;
2650;SDS011;1335;48.180;16.342;2023-11-19T13:37:42;11.27;;;9.00;;
2650;SDS011;1335;48.180;16.342;2023-11-19T13:40:10;16.17;;;10.90;;
2650;SDS011;1335;48.180;16.342;2023-11-19T13:42:40;10.20;;;9.17;;
2650;SDS011;1335;48.180;16.342;2023-11-19T13:45:08;9.93;;;8.80;;
2650;SDS011;1335;48.180;16.342;2023-11-19T13:47:38;8.60;;;7.53;;
2650;SDS011;1335;48.180;16.342;2023-11-19T13:50:07;10.50;;;9.03;;
2650;SDS011;1335;48.180;16.342;2023-11-19T13:52:34;9.40;;;8.00;;
2650;SDS011;1335;48.180;16.342;2023-11-19T13:55:04;8.70;;;7.90;;
2650;SDS011;1335;48.180;16.342;2023-11-19T13:57:31;6.77;;;6.07;;
2650;SDS011;1335;48.180;16.342;2023-11-19T14:00:01;7.63;;;6.90;;
2650;SDS011;1335;48.180;16.342;2023-11-19T14:02:31;9.07;;;7.13;;
2650;SDS011;1335;48.180;16.342;2023-11-19T14:04:58;9.00;;;8.10;;
2650;SDS011;1335;48.180;16.342;2023-11-19T14:07:26;7.90;;;6.87;;
2650;SDS011;1335;48.180;16.342;2023-11-19T14:09:53;8.53;;;7.67;;
2650;SDS011;1335;48.180;16.342;2023-11-19T14:12:21;8.30;;;7.50;;
2650;SDS011;1335;48.180;16.342;2023-11-19T14:14:48;9.80;;;8.20;;
2650;SDS011;1335;48.180;16.342;2023-11-19T14:17:17;13.67;;;9.80;;
2650;SDS011;1335;48.180;16.342;2023-11-19T14:19:44;9.07;;;8.17;;
2650;SDS011;1335;48.180;16.342;2023-11-19T14:22:12;12.93;;;9.90;;
2650;SDS011;1335;48.180;16.342;2023-11-19T14:24:39;9.20;;;8.10;;
2650;SDS011;1335;48.180;16.342;2023-11-19T14:27:08;9.60;;;8.60;;
2650;SDS011;1335;48.180;16.342;2023-11-19T14:29:35;12.07;;;10.30;;
2650;SDS011;1335;48.180;16.342;2023-11-19T14:32:03;14.90;;;10.03;;
2650;SDS011;1335;48.180;16.342;2023-11-19T14:34:33;15.70;;;9.87;;
2650;SDS011;1335;48.180;16.342;2023-11-19T14:37:00;12.40;;;9.77;;
2650;SDS011;1335;48.180;16.342;2023-11-19T14:39:27;13.17;;;8.37;;
2650;SDS011;1335;48.180;16.342;2023-11-19T14:41:56;10.03;;;9.03;;
2650;SDS011;1335;48.180;16.342;2023-11-19T14:44:26;11.10;;;9.20;;
2650;SDS011;1335;48.180;16.342;2023-11-19T14:46:54;12.20;;;10.70;;
2650;SDS011;1335;48.180;16.342;2023-11-19T14:49:22;11.13;;;9.93;;
2650;SDS011;1335;48.180;16.342;2023-11-19T14:51:51;12.17;;;9.27;;
2650;SDS011;1335;48.180;16.342;2023-11-19T14:54:18;10.80;;;9.70;;
2650;SDS011;1335;48.180;16.342;2023-11-19T14:56:45;11.23;;;10.10;;
2650;SDS011;1335;48.180;16.342;2023-11-19T14:59:13;12.47;;;11.00;;
2650;SDS011;1335;48.180;16.342;2023-11-19T15:01:40;11.33;;;10.20;;
2650;SDS011;1335;48.180;16.342;2023-11-19T15:04:07;9.80;;;8.80;;
2650;SDS011;1335;48.180;16.342;2023-11-19T15:06:34;11.90;;;10.70;;
2650;SDS011;1335;48.180;16.342;2023-11-19T15:09:03;14.33;;;12.13;;
2650;SDS011;1335;48.180;16.342;2023-11-19T15:11:32;13.37;;;11.97;;
2650;SDS011;1335;48.180;16.342;2023-11-19T15:14:00;22.43;;;15.67;;
2650;SDS011;1335;48.180;16.342;2023-11-19T15:16:28;32.73;;;25.33;;